createdAt,value
2023-01-19T00:02:48.269Z,5.18
2023-01-19T00:05:51.578Z,4.55
2023-01-19T00:08:54.582Z,4.90
2023-01-19T00:11:57.438Z,5.25
2023-01-19T00:15:00.256Z,5.43
2023-01-19T00:18:03.135Z,6.25
2023-01-19T00:21:06.028Z,7.13
2023-01-19T00:24:10.299Z,6.80
2023-01-19T00:27:13.015Z,6.72
2023-01-19T00:30:16.667Z,8.93
2023-01-19T00:33:19.452Z,8.43
2023-01-19T00:36:22.331Z,9.60
2023-01-19T00:39:25.123Z,10.50
2023-01-19T00:42:46.091Z,8.82
2023-01-19T00:45:49.018Z,9.05
2023-01-19T00:48:51.868Z,9.52
2023-01-19T00:51:54.915Z,10.17
2023-01-19T00:54:57.853Z,11.13
2023-01-19T00:58:00.682Z,12.75
2023-01-19T01:01:04.918Z,12.40
2023-01-19T01:04:07.946Z,12.65
2023-01-19T01:07:10.714Z,11.50
2023-01-19T01:10:18.451Z,14.33
2023-01-19T01:13:23.652Z,15.07
2023-01-19T01:16:28.321Z,13.27
2023-01-19T01:19:31.838Z,13.20
2023-01-19T01:22:34.611Z,16.20
2023-01-19T01:25:38.785Z,15.70
2023-01-19T01:28:41.639Z,14.95
2023-01-19T01:31:44.544Z,15.80
2023-01-19T01:34:47.292Z,12.75
2023-01-19T01:37:50.036Z,12.57
2023-01-19T01:40:52.999Z,11.07
2023-01-19T01:44:01.935Z,10.45
2023-01-19T01:47:04.989Z,12.10
2023-01-19T01:50:16.655Z,10.88
2023-01-19T01:53:19.673Z,9.70
2023-01-19T01:56:28.916Z,8.90
2023-01-19T01:59:39.299Z,7.60
2023-01-19T02:02:51.625Z,8.45
2023-01-19T02:05:59.492Z,6.05
2023-01-19T02:09:29.721Z,5.38
2023-01-19T02:12:51.514Z,6.00
2023-01-19T02:15:58.567Z,4.15
2023-01-19T02:19:01.465Z,4.57
2023-01-19T02:22:07.355Z,4.40
2023-01-19T02:25:10.453Z,5.50
2023-01-19T02:28:14.032Z,5.83
2023-01-19T02:31:17.982Z,6.05
2023-01-19T02:34:21.737Z,5.53
2023-01-19T02:37:25.470Z,5.63
2023-01-19T02:40:28.758Z,5.93
2023-01-19T02:43:33.362Z,6.57
2023-01-19T02:46:36.930Z,7.80
2023-01-19T02:49:39.863Z,6.57
2023-01-19T02:52:42.609Z,6.20
2023-01-19T02:55:54.187Z,6.50
2023-01-19T02:59:23.585Z,6.93
2023-01-19T03:02:53.819Z,6.13
2023-01-19T03:06:25.768Z,6.28
2023-01-19T03:09:47.978Z,5.80
2023-01-19T03:13:11.225Z,6.50
2023-01-19T03:16:44.430Z,9.23
2023-01-19T03:19:49.761Z,9.15
2023-01-19T03:23:00.848Z,5.68
2023-01-19T03:26:06.686Z,6.05
2023-01-19T03:29:13.909Z,5.30
2023-01-19T03:32:21.049Z,5.40
2023-01-19T03:35:26.526Z,5.18
2023-01-19T03:38:35.256Z,4.97
2023-01-19T03:41:39.937Z,5.18
2023-01-19T03:44:45.531Z,7.57
2023-01-19T03:47:49.198Z,10.13
2023-01-19T03:50:53.319Z,11.52
2023-01-19T03:53:56.098Z,10.10
2023-01-19T03:56:58.946Z,5.00
2023-01-19T04:00:01.827Z,5.50
2023-01-19T04:03:17.209Z,5.93
2023-01-19T04:06:21.838Z,6.03
2023-01-19T04:09:25.864Z,8.48
2023-01-19T04:12:28.819Z,9.50
2023-01-19T04:15:32.545Z,8.00
2023-01-19T04:18:36.030Z,6.47
2023-01-19T04:21:39.216Z,8.32
2023-01-19T04:24:42.002Z,8.00
2023-01-19T04:27:44.791Z,9.77
2023-01-19T04:30:51.051Z,7.70
2023-01-19T04:33:53.852Z,8.40
2023-01-19T04:36:56.648Z,8.82
2023-01-19T04:39:59.572Z,11.00
2023-01-19T04:43:02.794Z,7.15
2023-01-19T04:46:05.982Z,8.20
2023-01-19T04:49:10.353Z,7.27
2023-01-19T04:52:13.135Z,8.52
2023-01-19T04:55:16.213Z,7.85
2023-01-19T04:58:19.197Z,8.05
2023-01-19T05:01:22.576Z,11.20
2023-01-19T05:04:25.979Z,9.60
2023-01-19T05:07:28.802Z,10.52
2023-01-19T05:10:31.701Z,10.55
2023-01-19T05:13:34.620Z,11.68
2023-01-19T05:16:37.614Z,12.67
2023-01-19T05:19:40.412Z,13.43
2023-01-19T05:22:43.832Z,15.20
2023-01-19T05:25:47.033Z,13.70
2023-01-19T05:28:50.457Z,10.77
2023-01-19T05:31:53.538Z,11.07
2023-01-19T05:34:56.344Z,10.40
2023-01-19T05:37:59.108Z,8.25
2023-01-19T05:41:02.097Z,7.75
2023-01-19T05:44:05.075Z,9.40
2023-01-19T05:47:07.858Z,8.70
2023-01-19T05:50:11.208Z,6.37
2023-01-19T05:53:13.985Z,6.50
2023-01-19T05:56:16.818Z,7.47
2023-01-19T05:59:24.262Z,6.60
2023-01-19T06:02:30.277Z,6.07
2023-01-19T06:05:33.282Z,6.50
2023-01-19T06:08:36.722Z,6.72
2023-01-19T06:11:39.535Z,5.22
2023-01-19T06:14:42.347Z,7.05
2023-01-19T06:17:45.163Z,4.17
2023-01-19T06:20:47.895Z,4.70
2023-01-19T06:23:50.640Z,4.63
2023-01-19T06:26:53.847Z,2.35
2023-01-19T06:29:56.919Z,2.85
2023-01-19T06:33:00.111Z,3.53
2023-01-19T06:36:03.928Z,3.90
2023-01-19T06:39:06.852Z,3.60
2023-01-19T06:42:10.275Z,4.32
2023-01-19T06:45:13.010Z,3.58
2023-01-19T06:48:15.961Z,4.57
2023-01-19T06:51:18.851Z,4.47
2023-01-19T06:54:22.965Z,5.07
2023-01-19T06:57:26.299Z,3.05
2023-01-19T07:00:29.936Z,4.18
2023-01-19T07:03:34.913Z,3.00
2023-01-19T07:06:37.868Z,4.50
2023-01-19T07:09:43.118Z,2.60
2023-01-19T07:12:47.814Z,1.52
2023-01-19T07:15:53.597Z,1.15
2023-01-19T07:18:56.495Z,1.30
2023-01-19T07:21:59.698Z,1.53
2023-01-19T07:25:02.787Z,1.30
2023-01-19T07:28:07.347Z,0.90
2023-01-19T07:31:11.519Z,0.80
2023-01-19T07:34:15.581Z,2.80
2023-01-19T07:37:18.465Z,1.83
2023-01-19T07:40:23.328Z,1.60
2023-01-19T07:43:27.239Z,2.33
2023-01-19T07:46:30.179Z,5.10
2023-01-19T07:49:35.644Z,2.30
2023-01-19T07:52:38.570Z,2.10
2023-01-19T07:55:41.385Z,2.25
2023-01-19T07:58:44.352Z,3.88
2023-01-19T08:01:47.373Z,2.72
2023-01-19T08:04:50.355Z,1.53
2023-01-19T08:07:54.205Z,3.77
2023-01-19T08:11:05.588Z,2.67
2023-01-19T08:14:11.125Z,5.63
2023-01-19T08:17:14.193Z,4.68
2023-01-19T08:20:17.295Z,6.03
2023-01-19T08:23:20.356Z,4.87
2023-01-19T08:26:34.817Z,3.40
2023-01-19T08:29:37.957Z,3.72
2023-01-19T08:32:40.914Z,3.20
2023-01-19T08:35:47.699Z,3.43
2023-01-19T08:38:50.935Z,7.23
2023-01-19T08:41:54.090Z,2.90
2023-01-19T08:44:58.825Z,2.38
2023-01-19T08:48:02.488Z,3.42
2023-01-19T08:51:05.381Z,6.90
2023-01-19T08:54:08.303Z,4.97
2023-01-19T08:57:12.212Z,4.13
2023-01-19T09:00:15.527Z,5.15
2023-01-19T09:03:19.959Z,5.82
2023-01-19T09:06:25.813Z,7.23
2023-01-19T09:09:31.887Z,3.90
2023-01-19T09:12:35.004Z,6.72
2023-01-19T09:15:40.097Z,3.92
2023-01-19T09:18:46.225Z,4.80
2023-01-19T09:21:49.581Z,5.90
2023-01-19T09:24:53.008Z,4.53
2023-01-19T09:27:56.385Z,5.82
2023-01-19T09:31:00.182Z,5.57
2023-01-19T09:34:04.573Z,7.72
2023-01-19T09:37:33.428Z,8.57
2023-01-19T09:40:54.917Z,6.60
2023-01-19T09:44:00.390Z,6.50
2023-01-19T09:47:13.677Z,6.13
2023-01-19T09:50:25.150Z,12.32
2023-01-19T09:53:55.833Z,6.20
2023-01-19T09:56:59.951Z,8.07
2023-01-19T10:00:14.881Z,11.45
2023-01-19T10:03:20.872Z,13.38
2023-01-19T10:06:24.305Z,13.73
2023-01-19T10:09:37.757Z,14.50
2023-01-19T10:13:14.663Z,15.23
2023-01-19T10:16:32.552Z,17.77
2023-01-19T10:19:42.299Z,14.07
2023-01-19T10:22:49.355Z,16.73
2023-01-19T10:25:52.600Z,12.50
2023-01-19T10:29:03.334Z,13.63
2023-01-19T10:32:28.346Z,19.30
2023-01-19T10:35:31.398Z,13.40
2023-01-19T10:38:35.475Z,13.48
2023-01-19T10:41:47.088Z,13.67
2023-01-19T10:44:50.740Z,13.47
2023-01-19T10:47:55.446Z,12.25
2023-01-19T10:51:04.908Z,13.02
2023-01-19T10:54:13.711Z,14.45
2023-01-19T10:57:28.731Z,15.70
2023-01-19T11:00:40.995Z,13.50
2023-01-19T11:03:46.818Z,13.80
2023-01-19T11:06:49.803Z,13.70
2023-01-19T11:10:23.985Z,14.25
2023-01-19T11:13:27.149Z,9.70
2023-01-19T11:16:35.225Z,12.67
2023-01-19T11:19:38.090Z,12.18
2023-01-19T11:22:41.089Z,8.90
2023-01-19T11:25:47.682Z,8.27
2023-01-19T11:28:54.885Z,11.23
2023-01-19T11:32:10.619Z,13.00
2023-01-19T11:35:37.245Z,8.70
2023-01-19T11:38:46.031Z,6.35
2023-01-19T11:41:52.309Z,5.88
2023-01-19T11:44:58.232Z,4.37
2023-01-19T11:48:04.880Z,5.00
2023-01-19T11:51:14.105Z,7.00
2023-01-19T11:54:28.655Z,9.27
2023-01-19T11:57:32.214Z,6.60
2023-01-19T12:01:03.048Z,5.47
2023-01-19T12:04:26.304Z,5.33
2023-01-19T12:07:33.146Z,2.85
2023-01-19T12:10:41.880Z,5.00
2023-01-19T12:13:46.810Z,6.95
2023-01-19T12:16:53.181Z,5.80
2023-01-19T12:20:32.061Z,8.07
2023-01-19T12:23:47.077Z,7.68
2023-01-19T12:26:54.596Z,6.22
2023-01-19T12:29:57.925Z,9.13
2023-01-19T12:33:29.770Z,6.80
2023-01-19T12:36:36.792Z,7.57
2023-01-19T12:39:49.036Z,14.30
2023-01-19T12:43:05.508Z,9.30
2023-01-19T12:46:29.430Z,8.38
2023-01-19T12:49:32.338Z,8.43
2023-01-19T12:52:51.733Z,8.57
2023-01-19T12:56:01.954Z,7.45
2023-01-19T12:59:06.581Z,8.18
2023-01-19T13:02:18.665Z,8.77
2023-01-19T13:05:32.519Z,8.43
2023-01-19T13:08:54.724Z,8.90
2023-01-19T13:12:23.446Z,11.32
2023-01-19T13:15:38.408Z,10.25
2023-01-19T13:19:13.080Z,11.93
2023-01-19T13:22:51.403Z,13.47
2023-01-19T13:26:02.828Z,12.57
2023-01-19T13:29:11.201Z,16.02
2023-01-19T13:32:18.956Z,12.45
2023-01-19T13:35:23.092Z,13.38
2023-01-19T13:38:29.418Z,16.67
2023-01-19T13:41:38.379Z,13.30
2023-01-19T13:44:47.276Z,14.35
2023-01-19T13:47:51.639Z,18.27
2023-01-19T13:51:06.717Z,17.42
2023-01-19T13:54:16.640Z,15.47
2023-01-19T13:57:26.591Z,17.63
2023-01-19T14:00:31.157Z,20.33
2023-01-19T14:03:34.952Z,20.23
2023-01-19T14:06:47.642Z,15.80
2023-01-19T14:10:11.744Z,17.80
2023-01-19T14:13:20.758Z,16.73
2023-01-19T14:16:25.276Z,16.45
2023-01-19T14:19:28.826Z,14.65
2023-01-19T14:22:43.894Z,16.17
2023-01-19T14:25:46.911Z,19.17
2023-01-19T14:28:49.802Z,17.53
2023-01-19T14:32:01.873Z,16.33
2023-01-19T14:35:05.856Z,19.45
2023-01-19T14:38:14.440Z,21.73
2023-01-19T14:41:24.661Z,19.63
2023-01-19T14:44:35.511Z,12.47
2023-01-19T14:47:43.300Z,13.50
2023-01-19T14:51:02.516Z,15.30
2023-01-19T14:54:06.023Z,18.75
2023-01-19T14:57:13.995Z,17.97
2023-01-19T15:00:20.972Z,22.13
2023-01-19T15:03:38.587Z,27.85
2023-01-19T15:06:46.075Z,25.75
2023-01-19T15:09:49.156Z,16.10
2023-01-19T15:12:54.535Z,14.33
2023-01-19T15:16:23.329Z,12.50
2023-01-19T15:19:26.095Z,13.73
2023-01-19T15:22:44.766Z,12.57
2023-01-19T15:25:47.784Z,14.10
2023-01-19T15:28:50.813Z,12.40
2023-01-19T15:31:53.937Z,16.03
2023-01-19T15:34:56.904Z,14.25
2023-01-19T15:38:01.795Z,15.55
2023-01-19T15:41:04.623Z,15.23
2023-01-19T15:44:10.864Z,15.50
2023-01-19T15:47:13.605Z,15.30
2023-01-19T15:50:16.775Z,16.90
2023-01-19T15:53:24.031Z,18.88
2023-01-19T15:56:30.289Z,19.08
2023-01-19T15:59:33.157Z,19.90
2023-01-19T16:02:37.221Z,16.40
2023-01-19T16:05:43.799Z,21.33
2023-01-19T16:08:46.683Z,24.05
2023-01-19T16:11:49.494Z,26.23
2023-01-19T16:14:52.311Z,22.17
2023-01-19T16:17:55.102Z,20.73
2023-01-19T16:20:57.924Z,19.45
2023-01-19T16:24:01.048Z,16.63
2023-01-19T16:27:04.270Z,23.77
2023-01-19T16:30:07.970Z,19.73
2023-01-19T16:33:11.824Z,22.10
2023-01-19T16:36:25.410Z,22.92
2023-01-19T16:39:28.555Z,27.10
2023-01-19T16:42:31.449Z,25.20
2023-01-19T16:45:34.394Z,20.93
2023-01-19T16:48:37.424Z,19.77
2023-01-19T16:51:40.874Z,22.63
2023-01-19T16:54:43.902Z,16.65
2023-01-19T16:57:46.672Z,19.58
2023-01-19T17:00:50.023Z,14.43
2023-01-19T17:03:53.282Z,22.00
2023-01-19T17:06:56.283Z,23.30
2023-01-19T17:09:59.163Z,17.58
2023-01-19T17:13:02.028Z,24.48
2023-01-19T17:16:06.422Z,17.80
2023-01-19T17:19:14.445Z,23.43
2023-01-19T17:22:17.453Z,23.20
2023-01-19T17:25:20.333Z,16.75
2023-01-19T17:28:28.373Z,20.20
2023-01-19T17:31:32.489Z,17.33
2023-01-19T17:34:35.574Z,21.00
2023-01-19T17:37:38.576Z,19.38
2023-01-19T17:40:42.202Z,19.73
2023-01-19T17:43:47.142Z,19.85
2023-01-19T17:46:50.103Z,18.40
2023-01-19T17:49:53.010Z,18.33
2023-01-19T17:52:55.966Z,25.15
2023-01-19T17:56:09.728Z,21.95
2023-01-19T17:59:12.969Z,21.27
2023-01-19T18:02:16.283Z,23.17
2023-01-19T18:05:21.006Z,20.53
2023-01-19T18:08:24.160Z,19.25
2023-01-19T18:11:28.148Z,19.50
2023-01-19T18:14:31.166Z,22.63
2023-01-19T18:17:34.106Z,22.00
2023-01-19T18:20:40.033Z,23.53
2023-01-19T18:23:46.234Z,22.52
2023-01-19T18:26:49.090Z,21.02
2023-01-19T18:29:52.267Z,23.33
2023-01-19T18:32:55.321Z,25.43
2023-01-19T18:35:58.401Z,24.97
2023-01-19T18:39:02.033Z,27.90
2023-01-19T18:42:05.328Z,25.25
2023-01-19T18:45:09.032Z,29.98
2023-01-19T18:48:12.400Z,25.00
2023-01-19T18:51:17.165Z,23.23
2023-01-19T18:54:20.603Z,24.40
2023-01-19T18:57:23.650Z,23.65
2023-01-19T19:00:26.727Z,22.48
2023-01-19T19:03:30.092Z,23.10
2023-01-19T19:06:34.314Z,26.30
2023-01-19T19:09:37.444Z,25.88
2023-01-19T19:12:40.762Z,34.38
2023-01-19T19:15:44.620Z,28.02
2023-01-19T19:18:50.662Z,27.37
2023-01-19T19:21:53.837Z,29.00
2023-01-19T19:24:56.840Z,27.48
2023-01-19T19:27:59.914Z,31.92
2023-01-19T19:31:23.123Z,52.35
2023-01-19T19:34:26.327Z,94.63
2023-01-19T19:37:30.396Z,91.87
2023-01-19T19:40:33.483Z,105.63
2023-01-19T19:43:37.566Z,112.13
2023-01-19T19:46:41.763Z,111.50
2023-01-19T19:49:45.232Z,92.70
2023-01-19T19:52:48.883Z,75.77
2023-01-19T19:56:00.373Z,53.10
2023-01-19T19:59:03.785Z,43.13
2023-01-19T20:02:07.125Z,49.80
2023-01-19T20:05:10.374Z,47.90
2023-01-19T20:08:14.465Z,48.83
2023-01-19T20:11:28.452Z,53.38
2023-01-19T20:14:31.258Z,56.47
2023-01-19T20:17:34.470Z,53.35
2023-01-19T20:20:38.521Z,53.07
2023-01-19T20:23:41.765Z,55.17
2023-01-19T20:26:47.877Z,53.88
2023-01-19T20:29:58.053Z,83.40
2023-01-19T20:33:02.118Z,86.65
2023-01-19T20:36:05.495Z,89.50
2023-01-19T20:39:11.243Z,88.03
2023-01-19T20:42:16.636Z,75.65
2023-01-19T20:45:20.860Z,67.68
2023-01-19T20:48:23.958Z,57.88
2023-01-19T20:51:27.271Z,58.33
2023-01-19T20:54:30.675Z,79.20
2023-01-19T20:57:33.837Z,72.38
2023-01-19T21:00:36.842Z,88.85
2023-01-19T21:03:40.218Z,75.57
2023-01-19T21:06:43.682Z,68.43
2023-01-19T21:09:46.538Z,54.13
2023-01-19T21:12:50.721Z,46.35
2023-01-19T21:15:53.962Z,42.45
2023-01-19T21:18:57.048Z,38.00
2023-01-19T21:22:00.179Z,30.93
2023-01-19T21:25:03.325Z,28.27
2023-01-19T21:28:06.398Z,25.88
2023-01-19T21:31:14.358Z,35.10
2023-01-19T21:34:17.716Z,41.65
2023-01-19T21:37:20.561Z,44.20
2023-01-19T21:40:23.461Z,41.50
2023-01-19T21:43:26.832Z,39.35
2023-01-19T21:46:32.310Z,34.47
2023-01-19T21:49:35.661Z,31.90
2023-01-19T21:52:39.359Z,35.43
2023-01-19T21:55:47.395Z,39.70
2023-01-19T21:58:50.531Z,39.92
2023-01-19T22:01:55.040Z,39.63
2023-01-19T22:04:57.983Z,46.22
2023-01-19T22:08:00.730Z,42.40
2023-01-19T22:11:09.102Z,42.47
2023-01-19T22:14:11.913Z,39.35
2023-01-19T22:17:15.008Z,32.55
2023-01-19T22:20:18.054Z,29.58
2023-01-19T22:23:20.868Z,28.40
2023-01-19T22:26:24.534Z,29.97
2023-01-19T22:29:27.634Z,23.63
2023-01-19T22:32:31.770Z,24.88
2023-01-19T22:35:34.573Z,24.85
2023-01-19T22:38:39.872Z,22.30
2023-01-19T22:41:45.038Z,23.60
2023-01-19T22:44:47.789Z,20.80
2023-01-19T22:47:50.588Z,19.77
2023-01-19T22:50:57.086Z,18.98
2023-01-19T22:54:00.209Z,19.40
2023-01-19T22:57:03.137Z,19.03
2023-01-19T23:00:08.838Z,19.23
2023-01-19T23:03:11.758Z,27.77
2023-01-19T23:06:17.926Z,17.10
2023-01-19T23:09:21.074Z,17.50
2023-01-19T23:12:24.115Z,17.93
2023-01-19T23:15:26.881Z,16.95
2023-01-19T23:18:30.680Z,19.85
2023-01-19T23:21:34.026Z,14.57
2023-01-19T23:24:36.882Z,16.47
2023-01-19T23:27:39.652Z,16.50
2023-01-19T23:30:42.605Z,16.15
2023-01-19T23:33:45.615Z,17.33
2023-01-19T23:36:48.416Z,13.40
2023-01-19T23:39:52.385Z,14.97
2023-01-19T23:42:55.337Z,14.20
2023-01-19T23:46:06.674Z,13.38
2023-01-19T23:49:09.776Z,14.60
2023-01-19T23:52:12.658Z,13.38
2023-01-19T23:55:16.877Z,14.20
2023-01-19T23:58:19.684Z,13.03
